sensor_id;sensor_type;location;lat;lon;timestamp;P1;durP1;ratioP1;P2;durP2;ratioP2
14665;SDS011;7420;53.574;10.040;2023-03-19T00:01:53;15.07;;;11.73;;
14665;SDS011;7420;53.574;10.040;2023-03-19T00:04:18;13.60;;;11.57;;
14665;SDS011;7420;53.574;10.040;2023-03-19T00:06:44;17.20;;;10.98;;
14665;SDS011;7420;53.574;10.040;2023-03-19T00:09:10;16.13;;;11.52;;
14665;SDS011;7420;53.574;10.040;2023-03-19T00:11:36;17.83;;;11.23;;
14665;SDS011;7420;53.574;10.040;2023-03-19T00:14:01;14.57;;;11.52;;
14665;SDS011;7420;53.574;10.040;2023-03-19T00:16:27;14.68;;;11.82;;
14665;SDS011;7420;53.574;10.040;2023-03-19T00:18:52;19.10;;;12.43;;
14665;SDS011;7420;53.574;10.040;2023-03-19T00:21:19;19.23;;;14.63;;
14665;SDS011;7420;53.574;10.040;2023-03-19T00:23:44;20.20;;;14.68;;
14665;SDS011;7420;53.574;10.040;2023-03-19T00:26:10;19.50;;;14.73;;
14665;SDS011;7420;53.574;10.040;2023-03-19T00:28:36;21.58;;;13.82;;
14665;SDS011;7420;53.574;10.040;2023-03-19T00:31:12;18.20;;;12.43;;
14665;SDS011;7420;53.574;10.040;2023-03-19T00:33:39;14.73;;;12.05;;
14665;SDS011;7420;53.574;10.040;2023-03-19T00:36:05;15.35;;;11.98;;
14665;SDS011;7420;53.574;10.040;2023-03-19T00:38:32;15.82;;;11.95;;
14665;SDS011;7420;53.574;10.040;2023-03-19T00:40:58;18.83;;;13.05;;
14665;SDS011;7420;53.574;10.040;2023-03-19T00:43:23;16.60;;;12.65;;
14665;SDS011;7420;53.574;10.040;2023-03-19T00:45:51;16.42;;;12.63;;
14665;SDS011;7420;53.574;10.040;2023-03-19T00:48:37;16.05;;;11.38;;
14665;SDS011;7420;53.574;10.040;2023-03-19T00:51:06;16.48;;;12.40;;
14665;SDS011;7420;53.574;10.040;2023-03-19T00:53:40;14.55;;;11.40;;
14665;SDS011;7420;53.574;10.040;2023-03-19T00:56:07;12.63;;;10.23;;
14665;SDS011;7420;53.574;10.040;2023-03-19T00:58:33;13.38;;;10.90;;
14665;SDS011;7420;53.574;10.040;2023-03-19T01:00:59;11.85;;;9.98;;
14665;SDS011;7420;53.574;10.040;2023-03-19T01:03:24;12.70;;;10.48;;
14665;SDS011;7420;53.574;10.040;2023-03-19T01:05:50;12.30;;;9.43;;
14665;SDS011;7420;53.574;10.040;2023-03-19T01:08:16;12.63;;;9.90;;
14665;SDS011;7420;53.574;10.040;2023-03-19T01:10:42;14.60;;;9.57;;
14665;SDS011;7420;53.574;10.040;2023-03-19T01:13:08;12.30;;;9.95;;
14665;SDS011;7420;53.574;10.040;2023-03-19T01:15:35;12.40;;;9.27;;
14665;SDS011;7420;53.574;10.040;2023-03-19T01:18:01;13.15;;;9.82;;
14665;SDS011;7420;53.574;10.040;2023-03-19T01:20:27;15.05;;;12.07;;
14665;SDS011;7420;53.574;10.040;2023-03-19T01:22:52;15.15;;;10.98;;
14665;SDS011;7420;53.574;10.040;2023-03-19T01:25:25;17.77;;;12.10;;
14665;SDS011;7420;53.574;10.040;2023-03-19T01:27:51;12.93;;;9.73;;
14665;SDS011;7420;53.574;10.040;2023-03-19T01:30:16;12.85;;;9.07;;
14665;SDS011;7420;53.574;10.040;2023-03-19T01:32:42;10.70;;;8.90;;
14665;SDS011;7420;53.574;10.040;2023-03-19T01:35:08;15.43;;;10.05;;
14665;SDS011;7420;53.574;10.040;2023-03-19T01:37:34;10.95;;;9.30;;
14665;SDS011;7420;53.574;10.040;2023-03-19T01:40:01;9.88;;;8.38;;
14665;SDS011;7420;53.574;10.040;2023-03-19T01:42:27;11.65;;;10.05;;
14665;SDS011;7420;53.574;10.040;2023-03-19T01:44:53;10.13;;;8.18;;
14665;SDS011;7420;53.574;10.040;2023-03-19T01:47:27;10.13;;;8.98;;
14665;SDS011;7420;53.574;10.040;2023-03-19T01:49:55;11.85;;;8.85;;
14665;SDS011;7420;53.574;10.040;2023-03-19T01:52:23;9.90;;;7.90;;
14665;SDS011;7420;53.574;10.040;2023-03-19T01:54:51;9.63;;;8.23;;
14665;SDS011;7420;53.574;10.040;2023-03-19T01:57:18;13.00;;;8.57;;
14665;SDS011;7420;53.574;10.040;2023-03-19T01:59:46;11.23;;;8.75;;
14665;SDS011;7420;53.574;10.040;2023-03-19T02:02:16;11.20;;;8.00;;
14665;SDS011;7420;53.574;10.040;2023-03-19T02:05:00;11.68;;;8.23;;
14665;SDS011;7420;53.574;10.040;2023-03-19T02:07:31;9.07;;;7.70;;
14665;SDS011;7420;53.574;10.040;2023-03-19T02:09:58;9.25;;;7.72;;
14665;SDS011;7420;53.574;10.040;2023-03-19T02:12:26;12.73;;;7.68;;
14665;SDS011;7420;53.574;10.040;2023-03-19T02:14:51;7.88;;;6.97;;
14665;SDS011;7420;53.574;10.040;2023-03-19T02:17:17;10.07;;;7.10;;
14665;SDS011;7420;53.574;10.040;2023-03-19T02:19:47;10.88;;;7.35;;
14665;SDS011;7420;53.574;10.040;2023-03-19T02:22:19;8.43;;;7.07;;
14665;SDS011;7420;53.574;10.040;2023-03-19T02:24:49;11.00;;;8.10;;
14665;SDS011;7420;53.574;10.040;2023-03-19T02:27:19;14.05;;;9.02;;
14665;SDS011;7420;53.574;10.040;2023-03-19T02:29:44;12.13;;;7.65;;
14665;SDS011;7420;53.574;10.040;2023-03-19T02:32:10;11.48;;;7.13;;
14665;SDS011;7420;53.574;10.040;2023-03-19T02:34:40;11.23;;;8.23;;
14665;SDS011;7420;53.574;10.040;2023-03-19T02:37:09;8.43;;;6.78;;
14665;SDS011;7420;53.574;10.040;2023-03-19T02:40:06;9.85;;;7.18;;
14665;SDS011;7420;53.574;10.040;2023-03-19T02:42:37;9.32;;;6.63;;
14665;SDS011;7420;53.574;10.040;2023-03-19T02:45:03;7.35;;;6.22;;
14665;SDS011;7420;53.574;10.040;2023-03-19T02:47:29;9.20;;;6.68;;
14665;SDS011;7420;53.574;10.040;2023-03-19T02:49:55;8.25;;;6.68;;
14665;SDS011;7420;53.574;10.040;2023-03-19T02:52:20;10.60;;;7.32;;
14665;SDS011;7420;53.574;10.040;2023-03-19T02:54:59;9.35;;;7.07;;
14665;SDS011;7420;53.574;10.040;2023-03-19T02:57:24;9.50;;;7.18;;
14665;SDS011;7420;53.574;10.040;2023-03-19T02:59:50;8.05;;;7.13;;
14665;SDS011;7420;53.574;10.040;2023-03-19T03:02:16;10.60;;;7.55;;
14665;SDS011;7420;53.574;10.040;2023-03-19T03:04:51;9.40;;;7.00;;
14665;SDS011;7420;53.574;10.040;2023-03-19T03:07:16;11.48;;;7.40;;
14665;SDS011;7420;53.574;10.040;2023-03-19T03:09:42;9.57;;;7.30;;
14665;SDS011;7420;53.574;10.040;2023-03-19T03:12:10;9.93;;;7.68;;
14665;SDS011;7420;53.574;10.040;2023-03-19T03:14:36;15.27;;;7.40;;
14665;SDS011;7420;53.574;10.040;2023-03-19T03:17:02;9.32;;;7.03;;
14665;SDS011;7420;53.574;10.040;2023-03-19T03:19:28;7.63;;;6.70;;
14665;SDS011;7420;53.574;10.040;2023-03-19T03:21:53;9.95;;;7.10;;
14665;SDS011;7420;53.574;10.040;2023-03-19T03:24:19;10.52;;;7.57;;
14665;SDS011;7420;53.574;10.040;2023-03-19T03:26:45;11.00;;;7.50;;
14665;SDS011;7420;53.574;10.040;2023-03-19T03:29:10;10.82;;;7.32;;
14665;SDS011;7420;53.574;10.040;2023-03-19T03:31:36;11.65;;;7.95;;
14665;SDS011;7420;53.574;10.040;2023-03-19T03:34:01;10.20;;;7.03;;
14665;SDS011;7420;53.574;10.040;2023-03-19T03:36:27;9.75;;;7.10;;
14665;SDS011;7420;53.574;10.040;2023-03-19T03:38:53;10.00;;;7.03;;
14665;SDS011;7420;53.574;10.040;2023-03-19T03:41:19;8.50;;;6.82;;
14665;SDS011;7420;53.574;10.040;2023-03-19T03:43:44;8.77;;;6.80;;
14665;SDS011;7420;53.574;10.040;2023-03-19T03:46:10;8.43;;;6.53;;
14665;SDS011;7420;53.574;10.040;2023-03-19T03:48:36;8.32;;;6.43;;
14665;SDS011;7420;53.574;10.040;2023-03-19T03:51:01;10.25;;;6.95;;
14665;SDS011;7420;53.574;10.040;2023-03-19T03:53:28;7.47;;;6.50;;
14665;SDS011;7420;53.574;10.040;2023-03-19T03:55:54;8.40;;;6.88;;
14665;SDS011;7420;53.574;10.040;2023-03-19T03:58:20;12.18;;;6.30;;
14665;SDS011;7420;53.574;10.040;2023-03-19T04:00:45;8.95;;;6.68;;
14665;SDS011;7420;53.574;10.040;2023-03-19T04:03:11;8.30;;;6.70;;
14665;SDS011;7420;53.574;10.040;2023-03-19T04:05:37;8.52;;;6.65;;
14665;SDS011;7420;53.574;10.040;2023-03-19T04:08:03;6.75;;;5.78;;
14665;SDS011;7420;53.574;10.040;2023-03-19T04:10:29;7.40;;;6.05;;
14665;SDS011;7420;53.574;10.040;2023-03-19T04:12:55;10.65;;;6.03;;
14665;SDS011;7420;53.574;10.040;2023-03-19T04:15:21;7.43;;;6.30;;
14665;SDS011;7420;53.574;10.040;2023-03-19T04:17:47;8.90;;;6.80;;
14665;SDS011;7420;53.574;10.040;2023-03-19T04:20:13;7.28;;;6.43;;
14665;SDS011;7420;53.574;10.040;2023-03-19T04:22:40;8.63;;;6.35;;
14665;SDS011;7420;53.574;10.040;2023-03-19T04:25:06;9.35;;;6.55;;
14665;SDS011;7420;53.574;10.040;2023-03-19T04:27:32;7.88;;;6.90;;
14665;SDS011;7420;53.574;10.040;2023-03-19T04:29:58;9.38;;;6.75;;
14665;SDS011;7420;53.574;10.040;2023-03-19T04:32:23;9.32;;;7.53;;
14665;SDS011;7420;53.574;10.040;2023-03-19T04:34:49;7.50;;;6.38;;
14665;SDS011;7420;53.574;10.040;2023-03-19T04:37:14;10.85;;;6.40;;
14665;SDS011;7420;53.574;10.040;2023-03-19T04:39:40;8.77;;;7.35;;
14665;SDS011;7420;53.574;10.040;2023-03-19T04:42:12;11.02;;;7.60;;
14665;SDS011;7420;53.574;10.040;2023-03-19T04:44:37;9.20;;;7.28;;
14665;SDS011;7420;53.574;10.040;2023-03-19T04:47:03;12.75;;;8.85;;
14665;SDS011;7420;53.574;10.040;2023-03-19T04:49:29;10.30;;;7.22;;
14665;SDS011;7420;53.574;10.040;2023-03-19T04:51:57;11.88;;;7.93;;
14665;SDS011;7420;53.574;10.040;2023-03-19T04:54:23;9.40;;;8.00;;
14665;SDS011;7420;53.574;10.040;2023-03-19T04:56:49;11.07;;;7.72;;
14665;SDS011;7420;53.574;10.040;2023-03-19T04:59:15;11.30;;;7.70;;
14665;SDS011;7420;53.574;10.040;2023-03-19T05:01:41;10.85;;;8.05;;
14665;SDS011;7420;53.574;10.040;2023-03-19T05:04:07;10.15;;;7.72;;
14665;SDS011;7420;53.574;10.040;2023-03-19T05:06:32;9.30;;;7.40;;
14665;SDS011;7420;53.574;10.040;2023-03-19T05:08:58;10.73;;;8.05;;
14665;SDS011;7420;53.574;10.040;2023-03-19T05:11:23;10.85;;;7.55;;
14665;SDS011;7420;53.574;10.040;2023-03-19T05:13:50;13.40;;;8.25;;
14665;SDS011;7420;53.574;10.040;2023-03-19T05:16:15;9.52;;;7.82;;
14665;SDS011;7420;53.574;10.040;2023-03-19T05:18:40;9.57;;;8.48;;
14665;SDS011;7420;53.574;10.040;2023-03-19T05:21:09;11.48;;;8.65;;
14665;SDS011;7420;53.574;10.040;2023-03-19T05:23:36;12.75;;;8.77;;
14665;SDS011;7420;53.574;10.040;2023-03-19T05:26:01;11.27;;;8.40;;
14665;SDS011;7420;53.574;10.040;2023-03-19T05:28:27;13.13;;;8.57;;
14665;SDS011;7420;53.574;10.040;2023-03-19T05:30:52;11.48;;;8.70;;
14665;SDS011;7420;53.574;10.040;2023-03-19T05:33:17;11.40;;;8.60;;
14665;SDS011;7420;53.574;10.040;2023-03-19T05:35:43;11.30;;;8.90;;
14665;SDS011;7420;53.574;10.040;2023-03-19T05:38:09;12.27;;;9.18;;
14665;SDS011;7420;53.574;10.040;2023-03-19T05:40:55;13.82;;;9.80;;
14665;SDS011;7420;53.574;10.040;2023-03-19T05:43:20;13.60;;;9.77;;
14665;SDS011;7420;53.574;10.040;2023-03-19T05:45:50;13.00;;;9.25;;
14665;SDS011;7420;53.574;10.040;2023-03-19T05:48:18;12.38;;;9.52;;
14665;SDS011;7420;53.574;10.040;2023-03-19T05:50:45;15.30;;;10.00;;
14665;SDS011;7420;53.574;10.040;2023-03-19T05:53:11;14.88;;;10.45;;
14665;SDS011;7420;53.574;10.040;2023-03-19T05:55:37;12.77;;;9.77;;
14665;SDS011;7420;53.574;10.040;2023-03-19T05:58:02;15.65;;;10.63;;
14665;SDS011;7420;53.574;10.040;2023-03-19T06:00:28;14.18;;;10.20;;
14665;SDS011;7420;53.574;10.040;2023-03-19T06:02:53;17.30;;;10.75;;
14665;SDS011;7420;53.574;10.040;2023-03-19T06:05:19;15.95;;;9.88;;
14665;SDS011;7420;53.574;10.040;2023-03-19T06:07:44;13.90;;;10.60;;
14665;SDS011;7420;53.574;10.040;2023-03-19T06:10:10;11.57;;;10.35;;
14665;SDS011;7420;53.574;10.040;2023-03-19T06:12:35;13.23;;;10.30;;
14665;SDS011;7420;53.574;10.040;2023-03-19T06:15:01;19.17;;;10.95;;
14665;SDS011;7420;53.574;10.040;2023-03-19T06:17:27;14.15;;;10.75;;
14665;SDS011;7420;53.574;10.040;2023-03-19T06:19:52;14.32;;;10.07;;
14665;SDS011;7420;53.574;10.040;2023-03-19T06:22:18;15.02;;;11.35;;
14665;SDS011;7420;53.574;10.040;2023-03-19T06:24:43;15.52;;;11.15;;
14665;SDS011;7420;53.574;10.040;2023-03-19T06:27:08;14.45;;;10.93;;
14665;SDS011;7420;53.574;10.040;2023-03-19T06:29:34;16.55;;;10.95;;
14665;SDS011;7420;53.574;10.040;2023-03-19T06:32:00;16.55;;;11.70;;
14665;SDS011;7420;53.574;10.040;2023-03-19T06:34:26;14.55;;;10.25;;
14665;SDS011;7420;53.574;10.040;2023-03-19T06:36:52;12.73;;;10.50;;
14665;SDS011;7420;53.574;10.040;2023-03-19T06:39:18;15.15;;;11.80;;
14665;SDS011;7420;53.574;10.040;2023-03-19T06:41:44;18.33;;;10.32;;
14665;SDS011;7420;53.574;10.040;2023-03-19T06:44:09;17.17;;;11.10;;
14665;SDS011;7420;53.574;10.040;2023-03-19T06:46:35;14.60;;;10.20;;
14665;SDS011;7420;53.574;10.040;2023-03-19T06:49:01;13.70;;;11.35;;
14665;SDS011;7420;53.574;10.040;2023-03-19T06:51:27;14.70;;;10.68;;
14665;SDS011;7420;53.574;10.040;2023-03-19T06:53:52;16.50;;;11.40;;
14665;SDS011;7420;53.574;10.040;2023-03-19T06:56:18;15.27;;;10.57;;
14665;SDS011;7420;53.574;10.040;2023-03-19T06:58:43;15.38;;;11.95;;
14665;SDS011;7420;53.574;10.040;2023-03-19T07:01:09;14.80;;;11.20;;
14665;SDS011;7420;53.574;10.040;2023-03-19T07:03:35;12.55;;;10.38;;
14665;SDS011;7420;53.574;10.040;2023-03-19T07:06:01;15.85;;;11.15;;
14665;SDS011;7420;53.574;10.040;2023-03-19T07:08:26;13.23;;;10.82;;
14665;SDS011;7420;53.574;10.040;2023-03-19T07:10:54;13.75;;;11.25;;
14665;SDS011;7420;53.574;10.040;2023-03-19T07:13:20;13.95;;;10.48;;
14665;SDS011;7420;53.574;10.040;2023-03-19T07:15:46;15.73;;;10.65;;
14665;SDS011;7420;53.574;10.040;2023-03-19T07:18:11;13.63;;;11.02;;
14665;SDS011;7420;53.574;10.040;2023-03-19T07:20:37;13.65;;;10.45;;
14665;SDS011;7420;53.574;10.040;2023-03-19T07:23:02;11.70;;;10.13;;
14665;SDS011;7420;53.574;10.040;2023-03-19T07:25:27;13.98;;;10.32;;
14665;SDS011;7420;53.574;10.040;2023-03-19T07:27:53;15.00;;;9.75;;
14665;SDS011;7420;53.574;10.040;2023-03-19T07:30:18;14.13;;;9.85;;
14665;SDS011;7420;53.574;10.040;2023-03-19T07:32:44;13.88;;;10.20;;
14665;SDS011;7420;53.574;10.040;2023-03-19T07:35:09;12.13;;;8.68;;
14665;SDS011;7420;53.574;10.040;2023-03-19T07:37:35;11.90;;;9.45;;
14665;SDS011;7420;53.574;10.040;2023-03-19T07:40:01;12.05;;;9.93;;
14665;SDS011;7420;53.574;10.040;2023-03-19T07:42:27;13.57;;;9.45;;
14665;SDS011;7420;53.574;10.040;2023-03-19T07:44:53;14.20;;;9.20;;
14665;SDS011;7420;53.574;10.040;2023-03-19T07:47:18;14.20;;;9.98;;
14665;SDS011;7420;53.574;10.040;2023-03-19T07:49:44;11.88;;;9.32;;
14665;SDS011;7420;53.574;10.040;2023-03-19T07:52:09;11.63;;;9.40;;
14665;SDS011;7420;53.574;10.040;2023-03-19T07:54:35;11.05;;;9.27;;
14665;SDS011;7420;53.574;10.040;2023-03-19T07:57:01;12.38;;;9.18;;
14665;SDS011;7420;53.574;10.040;2023-03-19T07:59:27;15.45;;;9.57;;
14665;SDS011;7420;53.574;10.040;2023-03-19T08:01:55;15.60;;;11.00;;
14665;SDS011;7420;53.574;10.040;2023-03-19T08:04:20;13.60;;;10.98;;
14665;SDS011;7420;53.574;10.040;2023-03-19T08:06:46;15.18;;;10.45;;
14665;SDS011;7420;53.574;10.040;2023-03-19T08:09:13;12.43;;;10.13;;
14665;SDS011;7420;53.574;10.040;2023-03-19T08:11:38;15.30;;;10.45;;
14665;SDS011;7420;53.574;10.040;2023-03-19T08:14:04;12.93;;;9.88;;
14665;SDS011;7420;53.574;10.040;2023-03-19T08:16:29;14.68;;;10.02;;
14665;SDS011;7420;53.574;10.040;2023-03-19T08:18:55;11.90;;;10.25;;
14665;SDS011;7420;53.574;10.040;2023-03-19T08:21:20;12.68;;;11.20;;
14665;SDS011;7420;53.574;10.040;2023-03-19T08:23:46;11.85;;;10.68;;
14665;SDS011;7420;53.574;10.040;2023-03-19T08:26:11;12.73;;;11.38;;
14665;SDS011;7420;53.574;10.040;2023-03-19T08:28:37;11.10;;;10.07;;
14665;SDS011;7420;53.574;10.040;2023-03-19T08:31:06;14.20;;;11.85;;
14665;SDS011;7420;53.574;10.040;2023-03-19T08:33:33;11.90;;;10.70;;
14665;SDS011;7420;53.574;10.040;2023-03-19T08:36:05;18.80;;;9.85;;
14665;SDS011;7420;53.574;10.040;2023-03-19T08:38:34;9.40;;;8.40;;
14665;SDS011;7420;53.574;10.040;2023-03-19T08:41:00;10.60;;;8.35;;
14665;SDS011;7420;53.574;10.040;2023-03-19T08:43:28;10.63;;;7.70;;
14665;SDS011;7420;53.574;10.040;2023-03-19T08:45:55;13.23;;;8.10;;
14665;SDS011;7420;53.574;10.040;2023-03-19T08:48:20;11.30;;;7.68;;
14665;SDS011;7420;53.574;10.040;2023-03-19T08:50:50;11.75;;;7.75;;
14665;SDS011;7420;53.574;10.040;2023-03-19T08:53:18;14.85;;;8.20;;
14665;SDS011;7420;53.574;10.040;2023-03-19T08:55:44;8.93;;;7.53;;
14665;SDS011;7420;53.574;10.040;2023-03-19T09:00:44;8.10;;;6.18;;
14665;SDS011;7420;53.574;10.040;2023-03-19T09:03:09;10.60;;;6.95;;
14665;SDS011;7420;53.574;10.040;2023-03-19T09:05:35;9.20;;;7.00;;
14665;SDS011;7420;53.574;10.040;2023-03-19T09:08:00;7.18;;;6.05;;
14665;SDS011;7420;53.574;10.040;2023-03-19T09:10:26;10.45;;;6.93;;
14665;SDS011;7420;53.574;10.040;2023-03-19T09:12:51;8.63;;;5.63;;
14665;SDS011;7420;53.574;10.040;2023-03-19T09:15:17;8.60;;;6.55;;
14665;SDS011;7420;53.574;10.040;2023-03-19T09:17:42;9.85;;;7.15;;
14665;SDS011;7420;53.574;10.040;2023-03-19T09:20:08;9.13;;;6.90;;
14665;SDS011;7420;53.574;10.040;2023-03-19T09:22:34;8.50;;;6.45;;
14665;SDS011;7420;53.574;10.040;2023-03-19T09:25:00;8.57;;;6.28;;
14665;SDS011;7420;53.574;10.040;2023-03-19T09:27:25;8.63;;;5.10;;
14665;SDS011;7420;53.574;10.040;2023-03-19T09:29:51;7.47;;;5.65;;
14665;SDS011;7420;53.574;10.040;2023-03-19T09:32:17;8.82;;;4.90;;
14665;SDS011;7420;53.574;10.040;2023-03-19T09:34:42;5.50;;;4.72;;
14665;SDS011;7420;53.574;10.040;2023-03-19T09:37:08;6.05;;;4.82;;
14665;SDS011;7420;53.574;10.040;2023-03-19T09:39:35;6.93;;;5.20;;
14665;SDS011;7420;53.574;10.040;2023-03-19T09:44:49;8.60;;;5.22;;
14665;SDS011;7420;53.574;10.040;2023-03-19T09:50:01;5.80;;;5.20;;
14665;SDS011;7420;53.574;10.040;2023-03-19T09:53:05;6.63;;;5.07;;
14665;SDS011;7420;53.574;10.040;2023-03-19T09:55:40;6.10;;;5.20;;
14665;SDS011;7420;53.574;10.040;2023-03-19T09:58:13;8.48;;;5.70;;
14665;SDS011;7420;53.574;10.040;2023-03-19T10:00:43;6.03;;;4.90;;
14665;SDS011;7420;53.574;10.040;2023-03-19T10:14:19;4.88;;;3.95;;
14665;SDS011;7420;53.574;10.040;2023-03-19T10:16:45;6.68;;;3.97;;
14665;SDS011;7420;53.574;10.040;2023-03-19T10:19:14;5.85;;;4.15;;
14665;SDS011;7420;53.574;10.040;2023-03-19T10:21:46;5.80;;;4.75;;
14665;SDS011;7420;53.574;10.040;2023-03-19T10:24:21;5.03;;;4.00;;
14665;SDS011;7420;53.574;10.040;2023-03-19T10:26:56;5.25;;;3.75;;
14665;SDS011;7420;53.574;10.040;2023-03-19T10:29:25;4.72;;;4.20;;
14665;SDS011;7420;53.574;10.040;2023-03-19T10:34:36;6.05;;;4.70;;
14665;SDS011;7420;53.574;10.040;2023-03-19T10:39:38;6.05;;;3.90;;
14665;SDS011;7420;53.574;10.040;2023-03-19T10:47:50;5.93;;;3.50;;
14665;SDS011;7420;53.574;10.040;2023-03-19T10:50:17;4.38;;;3.78;;
14665;SDS011;7420;53.574;10.040;2023-03-19T10:52:44;5.60;;;4.03;;
14665;SDS011;7420;53.574;10.040;2023-03-19T10:55:25;5.13;;;3.83;;
14665;SDS011;7420;53.574;10.040;2023-03-19T11:01:04;5.25;;;3.60;;
14665;SDS011;7420;53.574;10.040;2023-03-19T11:06:06;6.20;;;3.65;;
14665;SDS011;7420;53.574;10.040;2023-03-19T11:08:37;5.57;;;3.72;;
14665;SDS011;7420;53.574;10.040;2023-03-19T11:11:02;4.43;;;3.78;;
14665;SDS011;7420;53.574;10.040;2023-03-19T11:13:28;4.05;;;3.67;;
14665;SDS011;7420;53.574;10.040;2023-03-19T11:15:56;6.15;;;4.15;;
14665;SDS011;7420;53.574;10.040;2023-03-19T11:18:28;6.88;;;3.75;;
14665;SDS011;7420;53.574;10.040;2023-03-19T11:21:05;4.13;;;3.17;;
14665;SDS011;7420;53.574;10.040;2023-03-19T11:23:38;4.30;;;3.00;;
14665;SDS011;7420;53.574;10.040;2023-03-19T11:26:05;5.38;;;3.03;;
14665;SDS011;7420;53.574;10.040;2023-03-19T11:28:31;4.45;;;2.95;;
14665;SDS011;7420;53.574;10.040;2023-03-19T11:31:00;4.25;;;2.95;;
14665;SDS011;7420;53.574;10.040;2023-03-19T11:33:46;4.40;;;3.05;;
14665;SDS011;7420;53.574;10.040;2023-03-19T12:05:20;5.88;;;3.97;;
14665;SDS011;7420;53.574;10.040;2023-03-19T12:11:08;5.68;;;4.65;;
14665;SDS011;7420;53.574;10.040;2023-03-19T12:19:48;4.47;;;3.53;;
14665;SDS011;7420;53.574;10.040;2023-03-19T12:22:53;5.55;;;3.67;;
14665;SDS011;7420;53.574;10.040;2023-03-19T12:28:48;4.60;;;3.58;;
14665;SDS011;7420;53.574;10.040;2023-03-19T12:36:28;7.47;;;4.47;;
14665;SDS011;7420;53.574;10.040;2023-03-19T12:39:01;8.48;;;4.88;;
14665;SDS011;7420;53.574;10.040;2023-03-19T12:41:31;8.07;;;5.30;;
14665;SDS011;7420;53.574;10.040;2023-03-19T12:44:02;8.13;;;5.30;;
14665;SDS011;7420;53.574;10.040;2023-03-19T12:46:57;6.47;;;5.40;;
14665;SDS011;7420;53.574;10.040;2023-03-19T12:49:24;7.18;;;5.38;;
14665;SDS011;7420;53.574;10.040;2023-03-19T12:54:41;8.98;;;5.70;;
14665;SDS011;7420;53.574;10.040;2023-03-19T12:57:14;8.05;;;5.57;;
14665;SDS011;7420;53.574;10.040;2023-03-19T12:59:54;9.60;;;6.90;;
14665;SDS011;7420;53.574;10.040;2023-03-19T13:02:31;7.05;;;5.70;;
14665;SDS011;7420;53.574;10.040;2023-03-19T13:08:35;7.60;;;5.00;;
14665;SDS011;7420;53.574;10.040;2023-03-19T13:16:56;6.03;;;4.00;;
14665;SDS011;7420;53.574;10.040;2023-03-19T13:19:30;5.47;;;4.13;;
14665;SDS011;7420;53.574;10.040;2023-03-19T13:22:12;5.30;;;3.75;;
14665;SDS011;7420;53.574;10.040;2023-03-19T13:24:41;4.95;;;3.95;;
14665;SDS011;7420;53.574;10.040;2023-03-19T13:27:14;3.65;;;3.20;;
14665;SDS011;7420;53.574;10.040;2023-03-19T13:30:18;4.15;;;3.75;;
14665;SDS011;7420;53.574;10.040;2023-03-19T13:40:51;6.20;;;4.18;;
14665;SDS011;7420;53.574;10.040;2023-03-19T13:46:03;9.10;;;4.30;;
14665;SDS011;7420;53.574;10.040;2023-03-19T13:53:40;6.30;;;4.63;;
14665;SDS011;7420;53.574;10.040;2023-03-19T13:56:16;6.95;;;4.22;;
14665;SDS011;7420;53.574;10.040;2023-03-19T13:58:48;5.10;;;3.55;;
14665;SDS011;7420;53.574;10.040;2023-03-19T14:03:59;8.05;;;4.45;;
14665;SDS011;7420;53.574;10.040;2023-03-19T14:11:53;6.47;;;4.70;;
14665;SDS011;7420;53.574;10.040;2023-03-19T14:14:29;11.05;;;5.78;;
14665;SDS011;7420;53.574;10.040;2023-03-19T14:16:55;9.23;;;5.60;;
14665;SDS011;7420;53.574;10.040;2023-03-19T14:19:20;8.27;;;5.70;;
14665;SDS011;7420;53.574;10.040;2023-03-19T14:27:01;12.40;;;6.70;;
14665;SDS011;7420;53.574;10.040;2023-03-19T14:29:36;7.93;;;6.22;;
14665;SDS011;7420;53.574;10.040;2023-03-19T14:32:07;9.80;;;6.47;;
14665;SDS011;7420;53.574;10.040;2023-03-19T14:34:41;15.25;;;11.75;;
14665;SDS011;7420;53.574;10.040;2023-03-19T14:37:30;13.95;;;9.50;;
14665;SDS011;7420;53.574;10.040;2023-03-19T14:56:30;9.65;;;6.60;;
14665;SDS011;7420;53.574;10.040;2023-03-19T14:58:57;14.20;;;8.73;;
14665;SDS011;7420;53.574;10.040;2023-03-19T15:01:27;16.60;;;10.07;;
14665;SDS011;7420;53.574;10.040;2023-03-19T15:04:03;11.18;;;7.25;;
14665;SDS011;7420;53.574;10.040;2023-03-19T15:06:41;10.88;;;7.50;;
14665;SDS011;7420;53.574;10.040;2023-03-19T15:09:16;12.57;;;7.95;;
14665;SDS011;7420;53.574;10.040;2023-03-19T15:11:49;11.90;;;8.15;;
14665;SDS011;7420;53.574;10.040;2023-03-19T15:17:23;11.52;;;7.85;;
14665;SDS011;7420;53.574;10.040;2023-03-19T15:19:51;8.43;;;6.47;;
14665;SDS011;7420;53.574;10.040;2023-03-19T15:22:19;8.55;;;7.15;;
14665;SDS011;7420;53.574;10.040;2023-03-19T15:24:44;8.07;;;6.20;;
14665;SDS011;7420;53.574;10.040;2023-03-19T15:27:23;13.45;;;12.05;;
14665;SDS011;7420;53.574;10.040;2023-03-19T15:29:50;11.05;;;7.93;;
14665;SDS011;7420;53.574;10.040;2023-03-19T15:32:35;9.05;;;7.45;;
14665;SDS011;7420;53.574;10.040;2023-03-19T15:35:06;22.08;;;7.40;;
14665;SDS011;7420;53.574;10.040;2023-03-19T15:37:35;8.23;;;7.35;;
14665;SDS011;7420;53.574;10.040;2023-03-19T15:40:05;10.48;;;7.40;;
14665;SDS011;7420;53.574;10.040;2023-03-19T15:42:35;10.07;;;7.95;;
14665;SDS011;7420;53.574;10.040;2023-03-19T15:47:31;11.10;;;9.35;;
14665;SDS011;7420;53.574;10.040;2023-03-19T15:49:59;12.15;;;10.15;;
14665;SDS011;7420;53.574;10.040;2023-03-19T15:52:31;11.00;;;9.30;;
14665;SDS011;7420;53.574;10.040;2023-03-19T15:55:00;15.32;;;12.85;;
14665;SDS011;7420;53.574;10.040;2023-03-19T15:57:27;10.05;;;9.05;;
14665;SDS011;7420;53.574;10.040;2023-03-19T15:59:53;11.65;;;9.68;;
14665;SDS011;7420;53.574;10.040;2023-03-19T16:02:27;11.95;;;10.23;;
14665;SDS011;7420;53.574;10.040;2023-03-19T16:04:55;22.20;;;19.00;;
14665;SDS011;7420;53.574;10.040;2023-03-19T16:07:22;14.45;;;11.45;;
14665;SDS011;7420;53.574;10.040;2023-03-19T16:09:59;12.73;;;11.40;;
14665;SDS011;7420;53.574;10.040;2023-03-19T16:12:43;16.58;;;11.57;;
14665;SDS011;7420;53.574;10.040;2023-03-19T16:15:20;14.27;;;11.48;;
14665;SDS011;7420;53.574;10.040;2023-03-19T16:17:49;13.30;;;11.90;;
14665;SDS011;7420;53.574;10.040;2023-03-19T16:20:14;13.68;;;11.95;;
14665;SDS011;7420;53.574;10.040;2023-03-19T16:22:40;11.38;;;10.18;;
14665;SDS011;7420;53.574;10.040;2023-03-19T16:25:14;14.95;;;13.30;;
14665;SDS011;7420;53.574;10.040;2023-03-19T16:27:45;15.13;;;13.65;;
14665;SDS011;7420;53.574;10.040;2023-03-19T16:30:29;13.13;;;11.77;;
14665;SDS011;7420;53.574;10.040;2023-03-19T16:32:55;14.48;;;12.48;;
14665;SDS011;7420;53.574;10.040;2023-03-19T16:35:22;15.38;;;11.75;;
14665;SDS011;7420;53.574;10.040;2023-03-19T16:37:49;16.23;;;12.77;;
14665;SDS011;7420;53.574;10.040;2023-03-19T16:43:06;13.63;;;12.18;;
14665;SDS011;7420;53.574;10.040;2023-03-19T16:45:41;14.65;;;13.15;;
14665;SDS011;7420;53.574;10.040;2023-03-19T16:48:07;12.48;;;10.82;;
14665;SDS011;7420;53.574;10.040;2023-03-19T16:50:36;14.32;;;12.82;;
14665;SDS011;7420;53.574;10.040;2023-03-19T16:53:04;16.85;;;13.13;;
14665;SDS011;7420;53.574;10.040;2023-03-19T16:55:37;15.50;;;13.18;;
14665;SDS011;7420;53.574;10.040;2023-03-19T16:58:04;15.07;;;13.15;;
14665;SDS011;7420;53.574;10.040;2023-03-19T17:00:36;16.50;;;13.80;;
14665;SDS011;7420;53.574;10.040;2023-03-19T17:03:02;15.30;;;12.05;;
14665;SDS011;7420;53.574;10.040;2023-03-19T17:05:27;16.08;;;12.70;;
14665;SDS011;7420;53.574;10.040;2023-03-19T17:07:53;16.50;;;13.07;;
14665;SDS011;7420;53.574;10.040;2023-03-19T17:10:23;17.98;;;13.60;;
14665;SDS011;7420;53.574;10.040;2023-03-19T17:12:52;20.08;;;13.90;;